Gordil Airport

FEGL · Rep. Centrafricana

Storia di METAR FEGL · Gordil Airport

Di seguito sono riportati i METAR degli ultimi giorni. Seleziona un anno per sfogliare i METAR più vecchi, dall'anno 2007 in poi.

18 luglio 2024

Tempo Codice Tempo meteorologico Temp. Vista Base nuvolosa Vento METAR/SPECI
04:00
V
23 °C 10 km+ - 310° 310° 2 kt METAR FEFF 180300Z 31002KT 9999 FEW004 23/23 Q1013 NOSIG
04:00
V
23 °C 10 km+ - 310° 310° 2 kt METAR FEFF 180300Z 31002KT 9999 FEW004 23/23 Q1013 NOSIG
03:00
V
23 °C 10 km+ - 360° 360° 0 kt METAR FEFF 180200Z 00000KT 9999 FEW004 23/22 Q1013 NOSIG
02:00
V
23 °C 10 km+ - Var Var 2 kt METAR FEFF 180100Z VRB02KT 9999 FEW010 23/23 Q1014 NOSIG
01:00
V
23 °C 10 km+ - 340° 340° 4 kt METAR FEFF 180000Z 34004KT 9999 FEW007 23/23 Q1014 NOSIG

17 luglio 2024

Tempo Codice Tempo meteorologico Temp. Vista Base nuvolosa Vento METAR/SPECI
23:00
V
23 °C 10 km+ - Var Var 2 kt METAR FEFF 172200Z VRB02KT 9999 FEW007 23/22 Q1014 NOSIG
22:00
V
23 °C 10 km+ - 330° 330° 4 kt METAR FEFF 172100Z 33004KT 9999 FEW007 23/22 Q1014 NOSIG
21:00
V
23 °C 10 km+ - 280° 280° 4 kt METAR FEFF 172000Z 28004KT 240V320 9999 TS FEW007 FEW033CB 23/23 Q1014 BECMG NSW
20:30
M
24 °C 6 km - 170° 170° 3 kt METAR FEFF 171930Z 17003KT 140V210 6000 TS FEW007 FEW033CB 24/23 Q1014 BECMG NSW
19:30
M
24 °C 6 km - Var Var 1 kt METAR FEFF 171830Z VRB01KT 6000 TS FEW010 FEW033CB 24/23 Q1013 BECMG NSW
19:00
V
24 °C 10 km+ - Var Var 2 kt METAR FEFF 171800Z VRB02KT 9999 TS FEW010 FEW033CB 24/23 Q1014 NOSIG
18:30
V
24 °C 10 km+ - Var Var 2 kt METAR FEFF 171730Z VRB02KT 9999 TS SCT010 FEW033CB 24/23 Q1014 NOSIG
18:00
V
23 °C 10 km+ - Var Var 2 kt METAR FEFF 171700Z VRB02KT 9999 -TSRA SCT010 FEW033CB 23/23 Q1013 TEMPO 4000 TSRA
17:30
V
24 °C 10 km+ - Var Var 2 kt METAR FEFF 171630Z VRB02KT 9999 -TSRA SCT010 FEW033CB 24/23 Q1013 TEMPO 4000 TSRA
17:00
V
24 °C 10 km+ - 210° 210° 4 kt METAR FEFF 171600Z 21004KT 9999 -TSRA SCT010 FEW033CB 24/23 Q1013 TEMPO 4000 TSRA
16:30
V
24 °C 10 km+ - 280° 280° 6 kt METAR FEFF 171530Z 28006KT 250V310 9999 -TSRA SCT016 FEW040CB 24/23 Q1012 TEMPO 4000 TSRA
16:00
V
25 °C 10 km+ - 240° 240° 4 kt METAR FEFF 171500Z 24004KT 200V280 9999 -TSRA SCT016 FEW040CB 25/23 Q1012 TEMPO 4000 TSRA
15:30
M
25 °C 10 km+ 1.600 ft 310° 310° 7 kt METAR FEFF 171430Z 31007KT 280V350 9999 -TSRA BKN016 FEW040CB 25/23 Q1012 TEMPO 4000 TSRA
15:00
M
25 °C 10 km+ 1.600 ft 330° 330° 11 kt METAR FEFF 171400Z 33011KT 9999 -TSRA BKN016 FEW040CB 25/23 Q1012 TEMPO 4000 TSRA
14:30
M
25 °C 10 km+ 1.600 ft 350° 350° 12 kt METAR FEFF 171330Z 35012KT 9999 TS BKN016 FEW040CB 25/22 Q1012 TEMPO 4000 TSRA
14:00
M
28 °C 10 km+ 1.600 ft 340° 340° 12 kt METAR FEFF 171300Z 34012KT 9999 BKN016 FEW040CB 28/23 Q1012 TEMPO TS
13:00
V
32 °C 10 km+ - Var Var 4 kt METAR FEFF 171200Z VRB04KT 9999 SCT016 32/25 Q1012 NOSIG
12:30
V
32 °C 10 km+ - Var Var 3 kt METAR FEFF 171130Z VRB03KT 9999 SCT016 32/23 Q1013 NOSIG
12:00
V
30 °C 10 km+ - 270° 270° 5 kt METAR FEFF 171100Z 27005KT 230V310 9999 SCT016 30/24 Q1014 NOSIG
11:30
V
29 °C 10 km+ - Var Var 3 kt METAR FEFF 171030Z VRB03KT 9999 SCT016 29/24 Q1014 NOSIG
11:00
V
29 °C 10 km+ - Var Var 2 kt METAR FEFF 171000Z VRB02KT 9999 FEW013 29/24 Q1015 NOSIG
10:30
V
28 °C 10 km+ - Var Var 4 kt METAR FEFF 170930Z VRB04KT 9999 FEW010 28/23 Q1015 NOSIG
10:00
V
27 °C 10 km+ - Var Var 3 kt METAR FEFF 170900Z VRB03KT 9999 FEW010 27/24 Q1015 NOSIG
09:30
V
26 °C 10 km+ - Var Var 2 kt METAR FEFF 170830Z VRB02KT 9999 FEW010 26/23 Q1015 NOSIG
09:00
V
25 °C 10 km+ - Var Var 3 kt METAR FEFF 170800Z VRB03KT 9999 SCT007 25/23 Q1016 NOSIG
08:00
V
24 °C 10 km+ - 150° 150° 4 kt METAR FEFF 170700Z 15004KT 110V170 9999 SCT007 24/23 Q1015 BECMG BKN013
07:30
V
24 °C 10 km+ - Var Var 2 kt METAR FEFF 170630Z VRB02KT 9999 FEW005 24/23 Q1015 NOSIG
07:00
V
24 °C 10 km+ - 360° 360° 0 kt METAR FEFF 170600Z 00000KT 9999 FEW005 24/23 Q1014 NOSIG
06:30
V
23 °C 10 km+ - 360° 360° 0 kt METAR FEFF 170530Z 00000KT 9999 FEW005 23/23 Q1014 NOSIG
06:00
V
23 °C 8 km - 360° 360° 0 kt METAR FEFF 170500Z 00000KT 8000 FEW006 23/23 Q1014 NOSIG
05:30
V
23 °C 8 km - Var Var 1 kt METAR FEFF 170430Z VRB01KT 8000 FEW005 23/23 Q1013 NOSIG
05:00
V
23 °C 10 km+ - Var Var 2 kt METAR FEFF 170400Z VRB02KT 9999 FEW006 23/23 Q1013 NOSIG
04:30
V
24 °C 8 km - 360° 360° 0 kt METAR FEFF 170330Z 00000KT 8000 FEW006 24/23 Q1013 NOSIG
04:00
V
24 °C 10 km+ - Var Var 2 kt METAR FEFF 170300Z VRB02KT 9999 FEW006 24/23 Q1013 NOSIG
03:30
V
24 °C 10 km+ - Var Var 2 kt METAR FEFF 170230Z VRB02KT 9999 SCT008 24/23 Q1013 NOSIG
03:00
I
23 °C 10 km+ 800 ft 340° 340° 3 kt METAR FEFF 170200Z 34003KT 320V030 9999 BKN008 FEW033CB 23/23 Q1013 BECMG NSW SCT010 FEW033CB
02:30
I
23 °C 10 km+ 700 ft Var Var 2 kt METAR FEFF 170130Z VRB02KT 9999 -TSRA BKN007 FEW033CB 23/22 Q1012 BECMG NSW
02:00
I
23 °C 10 km+ 700 ft 010° 010° 4 kt METAR FEFF 170100Z 01004KT 320V060 9999 -TSRA BKN007 FEW033CB 23/22 Q1013 BECMG NSW
01:30
M
23 °C 10 km+ 1.000 ft 010° 010° 4 kt METAR FEFF 170030Z 01004KT 340V050 9999 -TSRA BKN010 FEW033CB 23/22 Q1013 TEMPO 4000 TSRA
01:00
M
23 °C 10 km+ 1.000 ft Var Var 1 kt METAR FEFF 170000Z VRB01KT 9999 -TSRA BKN010 FEW033CB 23/22 Q1013 TEMPO 4000 TSRA
00:30
V
23 °C 10 km+ - 320° 320° 11 kt METAR FEFF 162330Z 32011KT 9999 -TSRA SCT010 FEW033CB 23/22 Q1014 TEMPO 4000 TSRA BKN010 FEW033CB
00:00
V
25 °C 10 km+ - 350° 350° 11 kt METAR FEFF 162300Z 35011KT 9999 -TSRA SCT010 25/23 Q1015 TEMPO 4000 TSRA

16 luglio 2024

Tempo Codice Tempo meteorologico Temp. Vista Base nuvolosa Vento METAR/SPECI
23:30
V
26 °C 10 km+ - 330° 330° 7 kt METAR FEFF 162230Z 33007KT 9999 TS SCT010 26/24 Q1014 TEMPO 4000 TSRA
23:00
M
26 °C 7 km - Var Var 2 kt METAR FEFF 162200Z VRB02KT 7000 SCT010 26/24 Q1014 NOSIG
22:30
M
26 °C 7 km - Var Var 2 kt METAR FEFF 162130Z VRB02KT 7000 SCT010 FEW033CB 26/25 Q1014 RETS NOSIG
22:00
M
26 °C 7 km - 360° 360° 0 kt METAR FEFF 162100Z 00000KT 7000 SCT010 FEW033CB 26/25 Q1014 RETS NOSIG
21:30
M
26 °C 7 km - Var Var 1 kt METAR FEFF 162030Z VRB01KT 7000 SCT010 FEW033CB 26/25 Q1014 RETS NOSIG
21:00
M
26 °C 7 km - Var Var 2 kt METAR FEFF 162000Z VRB02KT 7000 TS SCT010 FEW033CB 26/25 Q1013 TEMPO TSRA
20:30
M
27 °C 7 km - Var Var 3 kt METAR FEFF 161930Z VRB03KT 7000 TS SCT010 FEW033CB 27/25 Q1013 TEMPO TSRA
20:00
M
26 °C 5 km - Var Var 2 kt METAR FEFF 161900Z VRB02KT 5000 TS SCT010 FEW033CB 26/24 Q1013 TEMPO TSRA
19:00
M
26 °C 5 km - Var Var 2 kt METAR FEFF 161800Z VRB02KT 5000 SCT010 26/24 Q1012 RETS TEMPO 4000 BR
18:30
M
27 °C 7 km - Var Var 2 kt METAR FEFF 161730Z VRB02KT 7000 TS SCT016 FEW033CB 27/24 Q1011 TEMPO 4000 BR
18:00
M
27 °C 7 km - 180° 180° 4 kt METAR FEFF 161700Z 18004KT 7000 TS SCT016 FEW033CB 27/23 Q1010 TEMPO 4000 BR
17:30
M
28 °C 7 km - 170° 170° 2 kt METAR FEFF 161630Z 17002KT 7000 TS SCT016 FEW033CB 28/24 Q1010 NOSIG
17:00
V
29 °C 10 km+ - Var Var 2 kt METAR FEFF 161600Z VRB02KT 9999 TS SCT016 FEW033CB 29/24 Q1010 NOSIG
16:30
M
29 °C 10 km+ 2.000 ft 170° 170° 4 kt METAR FEFF 161530Z 17004KT 130V200 9999 TS BKN020 FEW040CB 29/23 Q1010 NOSIG
16:00
M
29 °C 10 km+ 2.000 ft Var Var 1 kt METAR FEFF 161500Z VRB01KT 9999 TS BKN020 FEW040CB 29/22 Q1010 NOSIG
15:00
M
30 °C 10 km+ 2.000 ft 200° 200° 6 kt METAR FEFF 161400Z 20006KT 160V240 9999 TS BKN020 FEW040CB 30/22 Q1011 TEMPO 4000 TSRA
14:30
M
31 °C 10 km+ 2.000 ft 270° 270° 5 kt METAR FEFF 161330Z 27005KT 220V300 9999 TS BKN020 FEW040CB 31/22 Q1011 TEMPO 4000 TSRA
14:00
M
33 °C 10 km+ 2.000 ft 280° 280° 8 kt METAR FEFF 161300Z 28008KT 250V310 9999 TS BKN020 FEW040CB 33/24 Q1012 TEMPO 4000 TSRA
13:00
M
33 °C 10 km+ 2.000 ft Var Var 4 kt METAR FEFF 161200Z VRB04KT 9999 BKN020 FEW040CB 33/24 Q1012 TEMPO TS
12:30
M
32 °C 10 km+ 2.000 ft 270° 270° 4 kt METAR FEFF 161130Z 27004KT 220V340 9999 BKN020 FEW040CB 32/24 Q1013 TEMPO TS
12:00
M
31 °C 10 km+ 2.000 ft 240° 240° 4 kt METAR FEFF 161100Z 24004KT 190V290 9999 BKN020 FEW040CB 31/23 Q1013 TEMPO TS
11:30
M
31 °C 10 km+ 2.000 ft 250° 250° 5 kt METAR FEFF 161030Z 25005KT 210V290 9999 BKN020 FEW040CB 31/24 Q1014 TEMPO TS
11:00
M
31 °C 10 km+ 2.000 ft 250° 250° 4 kt METAR FEFF 161000Z 25004KT 210V330 9999 BKN020 31/24 Q1014 NOSIG
10:30
V
31 °C 10 km+ - 270° 270° 5 kt METAR FEFF 160930Z 27005KT 190V320 9999 SCT023 31/23 Q1014 NOSIG
10:00
V
31 °C 10 km+ - 270° 270° 4 kt METAR FEFF 160900Z 27004KT 200V310 9999 FEW020 31/24 Q1014 NOSIG
09:30
V
29 °C 10 km+ - Var Var 4 kt METAR FEFF 160830Z VRB04KT 9999 FEW020 29/23 Q1015 NOSIG
09:00
V
30 °C 10 km+ - 230° 230° 4 kt METAR FEFF 160800Z 23004KT 160V300 9999 FEW016 30/24 Q1015 NOSIG
08:30
V
28 °C 10 km+ - Var Var 2 kt METAR FEFF 160730Z VRB02KT 9999 FEW016 28/23 Q1015 NOSIG
08:00
V
27 °C 10 km+ - Var Var 3 kt METAR FEFF 160700Z VRB03KT 9999 FEW010 27/23 Q1015 NOSIG
07:30
V
26 °C 10 km+ - Var Var 2 kt METAR FEFF 160630Z VRB02KT 9999 FEW007 26/23 Q1015 NOSIG
07:00
V
25 °C 10 km+ - Var Var 2 kt METAR FEFF 160600Z VRB02KT 9999 FEW007 25/23 Q1015 NOSIG
06:30
V
24 °C 10 km+ - 300° 300° 4 kt METAR FEFF 160530Z 30004KT 9999 FEW007 24/23 Q1015 NOSIG
06:00
V
24 °C 10 km+ - 360° 360° 0 kt METAR FEFF 160500Z 00000KT CAVOK 24/23 Q1014 NOSIG
05:30
V
24 °C 10 km+ - Var Var 2 kt METAR FEFF 160430Z VRB02KT CAVOK 24/23 Q1014 NOSIG
05:00
V
24 °C 10 km+ - 300° 300° 2 kt METAR FEFF 160400Z 30002KT CAVOK 24/23 Q1014 NOSIG
04:30
V
24 °C 10 km+ - 330° 330° 2 kt METAR FEFF 160330Z 33002KT CAVOK 24/23 Q1014 NOSIG
04:00
V
24 °C 10 km+ - 330° 330° 4 kt METAR FEFF 160300Z 33004KT CAVOK 24/23 Q1014 NOSIG
03:00
V
24 °C 10 km+ - 340° 340° 4 kt METAR FEFF 160200Z 34004KT 310V010 CAVOK 24/23 Q1014 NOSIG
02:30
V
24 °C 10 km+ - 320° 320° 3 kt METAR FEFF 160130Z 32003KT CAVOK 24/23 Q1014 NOSIG
02:00
V
24 °C 10 km+ - 350° 350° 4 kt METAR FEFF 160100Z 35004KT CAVOK 24/23 Q1013 NOSIG
01:00
V
25 °C 10 km+ - 290° 290° 3 kt METAR FEFF 160000Z 29003KT 260V320 CAVOK 25/24 Q1014 NOSIG
00:30
V
25 °C 10 km+ - 230° 230° 3 kt METAR FEFF 152330Z 23003KT 200V260 9999 FEW010 25/24 Q1014 RETS NOSIG
00:00
V
25 °C 10 km+ - 340° 340° 4 kt METAR FEFF 152300Z 34004KT 300V360 9999 FEW010 25/24 Q1014 RETS NOSIG

15 luglio 2024

Tempo Codice Tempo meteorologico Temp. Vista Base nuvolosa Vento METAR/SPECI
23:30
V
25 °C 8 km - 330° 330° 4 kt METAR FEFF 152230Z 33004KT 8000 TS FEW010 FEW033CB 25/24 Q1014 BECMG NSW
23:00
V
25 °C 8 km - 340° 340° 4 kt METAR FEFF 152200Z 34004KT 280V360 8000 TS FEW010 FEW033CB 25/24 Q1015 BECMG NSW
22:30
V
26 °C 8 km - 320° 320° 4 kt METAR FEFF 152130Z 32004KT 8000 TS FEW010 FEW033CB 26/24 Q1015 NOSIG
22:00
V
26 °C 8 km - 330° 330° 6 kt METAR FEFF 152100Z 33006KT 290V360 8000 TS FEW010 FEW033CB 26/24 Q1015 NOSIG
21:30
V
27 °C 8 km - 290° 290° 4 kt METAR FEFF 152030Z 29004KT 250V310 8000 FEW010 27/25 Q1014 NOSIG
21:00
V
27 °C 8 km - Var Var 2 kt METAR FEFF 152000Z VRB02KT 8000 FEW010 27/25 Q1014 NOSIG
20:30
V
27 °C 8 km - Var Var 2 kt METAR FEFF 151930Z VRB02KT 8000 FEW010 27/25 Q1014 NOSIG
20:00
V
27 °C 8 km - Var Var 1 kt METAR FEFF 151900Z VRB01KT 8000 FEW010 27/25 Q1013 NOSIG
19:30
V
28 °C 8 km - Var Var 2 kt METAR FEFF 151830Z VRB02KT 8000 FEW010 28/25 Q1013 NOSIG
19:00
V
28 °C 10 km+ - Var Var 1 kt METAR FEFF 151800Z VRB01KT 9999 FEW010 28/25 Q1012 NOSIG
18:30
V
29 °C 10 km+ - 330° 330° 3 kt METAR FEFF 151730Z 33003KT 9999 FEW010 29/25 Q1012 NOSIG
18:00
V
30 °C 10 km+ - Var Var 2 kt METAR FEFF 151700Z VRB02KT 9999 SCT016 FEW033CB 30/25 Q1011 TEMPO TS
17:30
V
31 °C 10 km+ - 280° 280° 5 kt METAR FEFF 151630Z 28005KT 250V320 9999 SCT020 FEW040CB 31/24 Q1011 TEMPO TS
17:00
V
33 °C 10 km+ - 260° 260° 6 kt METAR FEFF 151600Z 26006KT 220V300 9999 SCT020 FEW040CB 33/24 Q1011 TEMPO TS
16:30
V
34 °C 10 km+ - 250° 250° 5 kt METAR FEFF 151530Z 25005KT 200V290 9999 SCT020 FEW040CB 34/23 Q1011 TEMPO TS
16:00
V
34 °C 10 km+ - 280° 280° 3 kt METAR FEFF 151500Z 28003KT 230V350 9999 SCT020 FEW040CB 34/22 Q1011 NOSIG
15:30
V
34 °C 10 km+ - 270° 270° 5 kt METAR FEFF 151430Z 27005KT 240V300 9999 SCT020 FEW040CB 34/23 Q1011 NOSIG
15:00
V
33 °C 10 km+ - 100° 100° 3 kt METAR FEFF 151400Z 10003KT 060V130 9999 SCT020 FEW040CB 33/23 Q1011 NOSIG
14:30
V
33 °C 10 km+ - Var Var 2 kt METAR FEFF 151330Z VRB02KT 9999 SCT020 FEW040CB 33/23 Q1011 NOSIG
14:00
V
32 °C 10 km+ - Var Var 3 kt METAR FEFF 151300Z VRB03KT 9999 SCT020 FEW040CB 32/24 Q1012 NOSIG
13:30
V
33 °C 10 km+ - Var Var 3 kt METAR FEFF 151230Z VRB03KT 9999 SCT020 FEW040CB 33/24 Q1013 NOSIG
13:00
M
33 °C 10 km+ 2.000 ft Var Var 3 kt METAR FEFF 151200Z VRB03KT 9999 BKN020 FEW040CB 33/23 Q1013 NOSIG
12:30
M
33 °C 10 km+ 2.000 ft 280° 280° 5 kt METAR FEFF 151130Z 28005KT 210V020 9999 BKN020 FEW040CB 33/23 Q1014 NOSIG
12:00
M
31 °C 10 km+ 2.000 ft 250° 250° 4 kt METAR FEFF 151100Z 25004KT 190V330 9999 BKN020 FEW040CB 31/24 Q1014 NOSIG
11:30
M
31 °C 10 km+ 2.000 ft Var Var 3 kt METAR FEFF 151030Z VRB03KT 9999 BKN020 FEW040CB 31/24 Q1015 NOSIG
11:00
M
31 °C 10 km+ 1.600 ft Var Var 4 kt METAR FEFF 151000Z VRB04KT 9999 BKN016 31/24 Q1015 NOSIG
10:30
V
30 °C 10 km+ - Var Var 4 kt METAR FEFF 150930Z VRB04KT 9999 SCT016 30/23 Q1015 NOSIG
10:00
V
30 °C 10 km+ - Var Var 2 kt METAR FEFF 150900Z VRB02KT 9999 SCT013 30/23 Q1016 NOSIG
09:30
V
28 °C 10 km+ - Var Var 2 kt METAR FEFF 150830Z VRB02KT 9999 SCT013 28/23 Q1016 NOSIG
09:00
V
26 °C 10 km+ - Var Var 2 kt METAR FEFF 150800Z VRB02KT 9999 SCT013 26/23 Q1016 NOSIG
08:30
V
25 °C 10 km+ - 160° 160° 2 kt METAR FEFF 150730Z 16002KT 9999 FEW013 25/22 Q1016 NOSIG
08:00
V
24 °C 8 km - Var Var 3 kt METAR FEFF 150700Z VRB03KT 8000 FEW010 24/22 Q1016 NOSIG
07:30
V
23 °C 8 km - Var Var 2 kt METAR FEFF 150630Z VRB02KT 8000 FEW010 23/22 Q1016 NOSIG
07:00
V
23 °C 10 km+ - Var Var 2 kt METAR FEFF 150600Z VRB02KT 9999 FEW010 23/22 Q1016 TEMPO 4000 BR
Segnala modifiche